createdAt,value
2019-01-23T00:01:28.874Z,94267.72
2019-01-23T00:03:58.260Z,94315.94
2019-01-23T00:06:28.026Z,94298.77
2019-01-23T00:08:57.626Z,94297.70
2019-01-23T00:11:27.204Z,94304.28
2019-01-23T00:13:56.731Z,94143.49
2019-01-23T00:16:26.232Z,94282.10
2019-01-23T00:18:55.730Z,94280.52
2019-01-23T00:21:25.313Z,94278.97
2019-01-23T00:23:54.687Z,94274.92
2019-01-23T00:26:24.277Z,94286.09
2019-01-23T00:28:53.872Z,94290.56
2019-01-23T00:31:23.476Z,94255.62
2019-01-23T00:33:53.026Z,94305.29
2019-01-23T00:36:22.678Z,94277.08
2019-01-23T00:38:52.228Z,94301.18
2019-01-23T00:41:21.938Z,94304.47
2019-01-23T00:43:51.445Z,94273.09
2019-01-23T00:46:20.954Z,94303.14
2019-01-23T00:48:50.452Z,94255.39
2019-01-23T00:51:20.077Z,94284.92
2019-01-23T00:53:49.519Z,94256.84
2019-01-23T00:56:18.979Z,94288.97
2019-01-23T00:58:49.326Z,94250.67
2019-01-23T01:01:18.977Z,94274.23
2019-01-23T01:03:48.364Z,94268.91
2019-01-23T01:06:17.697Z,94262.05
2019-01-23T01:08:47.166Z,94279.02
2019-01-23T01:11:16.551Z,94263.25
2019-01-23T01:13:46.003Z,94257.61
2019-01-23T01:16:15.351Z,94269.16
2019-01-23T01:18:44.887Z,94255.45
2019-01-23T01:21:14.326Z,94260.77
2019-01-23T01:23:43.760Z,94252.86
2019-01-23T01:26:13.155Z,94245.36
2019-01-23T01:28:42.485Z,94242.38
2019-01-23T01:31:11.819Z,94262.52
2019-01-23T01:33:41.211Z,94268.06
2019-01-23T01:36:10.645Z,94253.81
2019-01-23T01:38:40.684Z,94261.06
2019-01-23T01:41:10.018Z,94241.56
2019-01-23T01:43:40.774Z,94252.84
2019-01-23T01:46:10.158Z,94237.98
2019-01-23T01:48:39.719Z,94233.27
2019-01-23T01:51:09.251Z,94238.33
2019-01-23T01:53:38.728Z,94235.52
2019-01-23T01:56:08.206Z,94246.09
2019-01-23T01:58:37.554Z,94236.05
2019-01-23T02:01:06.928Z,94223.61
2019-01-23T02:03:36.322Z,94246.64
2019-01-23T02:06:05.730Z,94222.53
2019-01-23T02:08:35.035Z,94223.28
2019-01-23T02:11:04.471Z,94213.24
2019-01-23T02:13:33.816Z,94223.20
2019-01-23T02:16:03.214Z,94217.84
2019-01-23T02:18:32.573Z,94221.63
2019-01-23T02:21:01.922Z,94209.13
2019-01-23T02:23:31.317Z,94199.64
2019-01-23T02:26:00.717Z,94208.30
2019-01-23T02:28:30.153Z,94207.56
2019-01-23T02:31:00.058Z,94194.47
2019-01-23T02:33:29.428Z,94198.45
2019-01-23T02:35:58.784Z,94200.55
2019-01-23T02:38:28.167Z,94192.83
2019-01-23T02:40:57.505Z,94210.36
2019-01-23T02:43:26.838Z,94206.59
2019-01-23T02:45:56.164Z,94200.91
2019-01-23T02:48:25.483Z,94208.87
2019-01-23T02:50:54.814Z,94214.45
2019-01-23T02:53:24.158Z,94220.08
2019-01-23T02:55:53.489Z,94211.91
2019-01-23T02:58:22.810Z,94204.00
2019-01-23T03:00:52.169Z,94195.80
2019-01-23T03:03:21.519Z,94209.63
2019-01-23T03:05:50.852Z,94208.52
2019-01-23T03:08:20.195Z,94207.98
2019-01-23T03:10:49.522Z,94202.25
2019-01-23T03:13:18.892Z,94216.13
2019-01-23T03:15:48.224Z,94210.27
2019-01-23T03:18:17.607Z,94201.17
2019-01-23T03:20:46.974Z,94195.30
2019-01-23T03:23:16.319Z,94190.83
2019-01-23T03:25:45.681Z,94194.11
2019-01-23T03:28:15.132Z,94192.22
2019-01-23T03:30:44.523Z,94188.29
2019-01-23T03:33:13.860Z,94178.83
2019-01-23T03:35:43.215Z,94177.81
2019-01-23T03:38:12.580Z,94185.84
2019-01-23T03:40:41.977Z,94189.20
2019-01-23T03:43:11.305Z,94187.59
2019-01-23T03:45:40.662Z,94185.58
2019-01-23T03:48:10.076Z,94191.03
2019-01-23T03:50:39.384Z,94184.25
2019-01-23T03:53:08.921Z,94175.73
2019-01-23T03:55:38.261Z,94161.13
2019-01-23T03:58:07.601Z,94175.22
2019-01-23T04:00:37.046Z,94169.11
2019-01-23T04:03:06.517Z,94164.08
2019-01-23T04:05:35.878Z,94183.23
2019-01-23T04:08:05.240Z,94154.19
2019-01-23T04:10:34.628Z,94158.55
2019-01-23T04:13:03.958Z,94176.03
2019-01-23T04:15:33.370Z,94170.30
2019-01-23T04:18:02.718Z,94168.80
2019-01-23T04:20:32.051Z,94170.50
2019-01-23T04:23:01.415Z,94170.72
2019-01-23T04:25:30.843Z,94180.16
2019-01-23T04:28:00.208Z,94173.20
2019-01-23T04:30:29.678Z,94186.17
2019-01-23T04:32:59.021Z,94185.47
2019-01-23T04:35:28.387Z,94187.02
2019-01-23T04:37:57.743Z,94201.46
2019-01-23T04:40:27.081Z,94198.86
2019-01-23T04:42:56.383Z,94197.81
2019-01-23T04:45:25.682Z,94200.30
2019-01-23T04:47:55.043Z,94206.58
2019-01-23T04:50:24.417Z,94211.46
2019-01-23T04:53:10.625Z,94218.30
2019-01-23T04:55:41.472Z,94209.97
2019-01-23T04:58:10.844Z,94201.27
2019-01-23T05:00:40.188Z,94054.56
2019-01-23T05:03:09.523Z,94189.48
2019-01-23T05:05:38.866Z,94206.79
2019-01-23T05:08:08.293Z,94207.89
2019-01-23T05:10:37.705Z,94211.39
2019-01-23T05:13:07.052Z,94207.27
2019-01-23T05:15:36.420Z,94198.44
2019-01-23T05:18:05.926Z,94205.12
2019-01-23T05:20:35.301Z,94219.26
2019-01-23T05:23:04.733Z,94222.08
2019-01-23T05:25:34.075Z,94221.66
2019-01-23T05:28:03.416Z,94218.20
2019-01-23T05:30:32.898Z,94227.19
2019-01-23T05:33:02.288Z,94230.58
2019-01-23T05:35:31.604Z,94217.13
2019-01-23T05:38:00.945Z,94226.58
2019-01-23T05:40:30.298Z,94225.52
2019-01-23T05:42:59.615Z,94220.91
2019-01-23T05:45:28.967Z,94225.63
2019-01-23T05:47:58.320Z,94243.12
2019-01-23T05:50:27.649Z,94223.08
2019-01-23T05:52:57.032Z,94212.95
2019-01-23T05:55:26.369Z,94229.25
2019-01-23T05:57:55.708Z,94230.20
2019-01-23T06:00:25.143Z,94192.56
2019-01-23T06:02:54.535Z,94245.44
2019-01-23T06:05:23.964Z,94205.02
2019-01-23T06:07:53.317Z,94211.29
2019-01-23T06:10:22.670Z,94247.03
2019-01-23T06:12:52.025Z,94221.92
2019-01-23T06:15:21.371Z,94216.75
2019-01-23T06:17:50.720Z,94247.04
2019-01-23T06:20:20.771Z,94199.11
2019-01-23T06:22:50.368Z,94211.91
2019-01-23T06:25:19.740Z,94224.34
2019-01-23T06:27:49.071Z,94201.76
2019-01-23T06:30:20.587Z,94218.33
2019-01-23T06:32:50.065Z,94194.16
2019-01-23T06:35:19.527Z,94203.94
2019-01-23T06:37:48.878Z,94203.56
2019-01-23T06:40:18.464Z,94185.63
2019-01-23T06:42:47.933Z,94199.83
2019-01-23T06:45:18.109Z,94199.45
2019-01-23T06:47:48.101Z,94199.48
2019-01-23T06:50:19.288Z,94207.91
2019-01-23T06:52:48.769Z,94212.98
2019-01-23T06:55:18.566Z,94179.27
2019-01-23T06:57:47.934Z,94190.53
2019-01-23T07:00:19.144Z,94189.77
2019-01-23T07:02:48.662Z,94189.77
2019-01-23T07:05:18.555Z,94185.91
2019-01-23T07:07:47.988Z,94206.36
2019-01-23T07:10:20.054Z,94198.09
2019-01-23T07:12:49.598Z,94168.16
2019-01-23T07:15:19.169Z,94168.16
2019-01-23T07:17:48.537Z,94192.68
2019-01-23T07:20:25.883Z,94159.54
2019-01-23T07:22:55.235Z,94159.54
2019-01-23T07:25:25.590Z,94180.23
2019-01-23T07:27:54.910Z,94180.23
2019-01-23T07:30:41.736Z,94190.16
2019-01-23T07:33:11.123Z,94183.04
2019-01-23T07:35:40.520Z,94198.20
2019-01-23T07:38:09.886Z,94198.28
2019-01-23T07:40:39.368Z,94198.01
2019-01-23T07:43:08.737Z,94198.01
2019-01-23T07:45:38.090Z,94200.56
2019-01-23T07:48:07.459Z,94200.56
2019-01-23T07:50:36.829Z,94200.61
2019-01-23T07:53:06.168Z,94203.81
2019-01-23T07:55:35.597Z,94196.71
2019-01-23T07:58:05.036Z,94207.07
2019-01-23T08:00:34.376Z,94208.87
2019-01-23T08:03:03.714Z,94186.52
2019-01-23T08:05:33.050Z,94199.64
2019-01-23T08:08:02.391Z,94190.83
2019-01-23T08:10:31.754Z,94193.03
2019-01-23T08:13:01.085Z,94179.86
2019-01-23T08:15:32.569Z,94199.61
2019-01-23T08:18:02.051Z,94201.59
2019-01-23T08:20:31.837Z,94181.26
2019-01-23T08:23:01.196Z,94193.31
2019-01-23T08:25:30.521Z,94160.32
2019-01-23T08:27:59.917Z,94197.80
2019-01-23T08:30:29.362Z,94184.36
2019-01-23T08:32:58.694Z,94186.33
2019-01-23T08:35:28.569Z,94197.40
2019-01-23T08:37:57.929Z,94197.84
2019-01-23T08:40:27.277Z,94204.43
2019-01-23T08:42:56.605Z,94198.33
2019-01-23T08:45:25.913Z,94183.14
2019-01-23T08:47:55.267Z,94200.53
2019-01-23T08:50:36.479Z,94208.95
2019-01-23T08:53:05.977Z,94206.11
2019-01-23T08:55:35.310Z,94213.63
2019-01-23T08:58:04.933Z,94206.95
2019-01-23T09:00:34.328Z,94205.88
2019-01-23T09:03:03.621Z,94218.05
2019-01-23T09:05:32.952Z,94206.11
2019-01-23T09:08:02.385Z,94209.82
2019-01-23T09:10:31.841Z,94218.62
2019-01-23T09:13:01.186Z,94208.16
2019-01-23T09:15:30.646Z,94201.98
2019-01-23T09:18:00.031Z,94203.50
2019-01-23T09:20:29.392Z,94207.88
2019-01-23T09:22:58.754Z,94190.97
2019-01-23T09:25:28.088Z,94172.95
2019-01-23T09:27:57.437Z,94183.92
2019-01-23T09:31:05.336Z,94177.50
2019-01-23T09:34:09.193Z,94170.89
2019-01-23T09:37:03.150Z,94176.67
2019-01-23T09:40:30.386Z,94168.92
2019-01-23T09:43:35.424Z,94139.89
2019-01-23T09:46:18.733Z,94159.03
2019-01-23T09:49:24.852Z,94134.42
2019-01-23T09:52:40.282Z,94129.45
2019-01-23T09:55:11.354Z,94114.86
2019-01-23T09:57:44.573Z,94089.67
2019-01-23T10:00:18.099Z,94094.92
2019-01-23T10:02:47.513Z,94096.06
2019-01-23T10:05:16.981Z,94092.42
2019-01-23T10:07:46.341Z,94091.61
2019-01-23T10:10:17.203Z,94096.89
2019-01-23T10:12:46.568Z,94109.48
2019-01-23T10:15:22.769Z,94113.86
2019-01-23T10:17:52.093Z,94128.72
2019-01-23T10:20:21.438Z,94117.80
2019-01-23T10:22:50.775Z,94113.45
2019-01-23T10:25:20.097Z,94066.33
2019-01-23T10:27:49.912Z,94079.96
2019-01-23T10:30:19.380Z,94063.42
2019-01-23T10:32:48.728Z,94064.34
2019-01-23T10:35:18.204Z,94062.91
2019-01-23T10:37:47.532Z,94073.03
2019-01-23T10:40:16.914Z,94059.31
2019-01-23T10:42:46.545Z,94054.22
2019-01-23T10:45:17.443Z,94061.11
2019-01-23T10:47:46.750Z,94059.27
2019-01-23T10:50:16.099Z,94029.38
2019-01-23T10:52:45.451Z,94020.22
2019-01-23T10:55:15.086Z,94028.57
2019-01-23T10:57:44.647Z,94035.73
2019-01-23T11:00:16.642Z,94031.47
2019-01-23T11:02:46.010Z,94025.94
2019-01-23T11:05:18.415Z,94013.72
2019-01-23T11:07:47.756Z,93988.69
2019-01-23T11:10:19.566Z,94001.06
2019-01-23T11:12:48.891Z,94026.90
2019-01-23T11:15:18.207Z,94013.84
2019-01-23T11:17:48.155Z,93996.73
2019-01-23T11:20:18.578Z,94014.30
2019-01-23T11:22:47.942Z,93981.88
2019-01-23T11:25:17.590Z,93970.64
2019-01-23T11:27:47.754Z,94008.69
2019-01-23T11:30:20.295Z,93974.55
2019-01-23T11:32:50.818Z,93965.99
2019-01-23T11:35:20.368Z,93975.80
2019-01-23T11:37:49.873Z,93982.71
2019-01-23T11:40:28.095Z,93967.02
2019-01-23T11:42:57.643Z,93969.83
2019-01-23T11:45:27.090Z,93973.22
2019-01-23T11:47:56.409Z,93964.66
2019-01-23T11:50:25.727Z,93977.61
2019-01-23T11:52:55.237Z,93974.83
2019-01-23T11:55:24.570Z,93956.48
2019-01-23T11:57:53.873Z,93967.17
2019-01-23T12:00:25.151Z,93960.19
2019-01-23T12:02:54.489Z,93952.28
2019-01-23T12:05:24.535Z,93949.96
2019-01-23T12:07:54.102Z,93948.52
2019-01-23T12:10:24.240Z,93945.84
2019-01-23T12:12:53.668Z,93809.33
2019-01-23T12:15:24.206Z,93958.43
2019-01-23T12:17:53.542Z,93951.42
2019-01-23T12:20:23.284Z,93939.16
2019-01-23T12:22:52.714Z,93934.47
2019-01-23T12:25:22.055Z,93931.14
2019-01-23T12:27:51.424Z,93931.34
2019-01-23T12:30:26.616Z,93923.66
2019-01-23T12:32:55.979Z,93928.45
2019-01-23T12:35:25.441Z,93925.88
2019-01-23T12:37:54.897Z,93925.31
2019-01-23T12:40:24.247Z,93924.56
2019-01-23T12:42:53.582Z,93914.84
2019-01-23T12:45:25.133Z,93913.48
2019-01-23T12:47:54.439Z,93915.84
2019-01-23T12:50:26.751Z,93915.06
2019-01-23T12:52:56.184Z,93907.48
2019-01-23T12:55:25.543Z,93907.23
2019-01-23T12:57:55.018Z,93906.77
2019-01-23T13:00:26.464Z,93910.95
2019-01-23T13:02:55.794Z,93915.48
2019-01-23T13:05:25.535Z,93909.79
2019-01-23T13:07:54.962Z,93904.78
2019-01-23T13:10:24.858Z,93900.39
2019-01-23T13:12:55.851Z,93895.39
2019-01-23T13:15:26.461Z,93899.38
2019-01-23T13:17:56.872Z,93882.05
2019-01-23T13:20:26.638Z,93878.38
2019-01-23T13:22:56.366Z,93871.89
2019-01-23T13:25:27.419Z,93877.16
2019-01-23T13:27:58.636Z,93884.01
2019-01-23T13:30:28.216Z,93883.97
2019-01-23T13:32:57.553Z,93879.92
2019-01-23T13:35:32.762Z,93871.02
2019-01-23T13:38:04.587Z,93862.91
2019-01-23T13:40:35.864Z,93853.97
2019-01-23T13:43:06.812Z,93859.84
2019-01-23T13:45:36.220Z,93869.84
2019-01-23T13:48:07.138Z,93875.67
2019-01-23T13:50:36.459Z,93860.74
2019-01-23T13:53:05.935Z,93870.82
2019-01-23T13:55:35.257Z,93869.37
2019-01-23T13:58:04.920Z,93872.16
2019-01-23T14:00:37.032Z,93864.37
2019-01-23T14:03:06.754Z,93863.41
2019-01-23T14:05:36.153Z,93863.50
2019-01-23T14:08:06.915Z,93861.48
2019-01-23T14:10:36.407Z,93872.22
2019-01-23T14:13:06.477Z,93855.03
2019-01-23T14:15:37.257Z,93863.31
2019-01-23T14:18:07.185Z,93857.06
2019-01-23T14:20:36.520Z,93849.20
2019-01-23T14:23:06.593Z,93850.18
2019-01-23T14:25:36.266Z,93845.05
2019-01-23T14:28:05.918Z,93849.09
2019-01-23T14:30:40.991Z,93854.77
2019-01-23T14:33:10.404Z,93855.13
2019-01-23T14:35:41.394Z,93854.33
2019-01-23T14:38:10.924Z,93847.86
2019-01-23T14:40:40.253Z,93850.09
2019-01-23T14:43:09.745Z,93842.50
2019-01-23T14:45:39.164Z,93842.84
2019-01-23T14:48:08.526Z,93841.07
2019-01-23T14:50:37.876Z,93840.61
2019-01-23T14:53:07.212Z,93833.59
2019-01-23T14:55:36.612Z,93829.56
2019-01-23T14:58:06.253Z,93826.00
2019-01-23T15:00:35.719Z,93828.81
2019-01-23T15:03:05.579Z,93820.88
2019-01-23T15:05:34.987Z,93820.75
2019-01-23T15:08:04.439Z,93814.28
2019-01-23T15:10:33.769Z,93819.52
2019-01-23T15:13:03.323Z,93817.63
2019-01-23T15:15:32.659Z,93811.61
2019-01-23T15:18:02.101Z,93814.59
2019-01-23T15:20:39.658Z,93817.78
2019-01-23T15:23:09.144Z,93817.78
2019-01-23T15:25:38.612Z,93817.47
2019-01-23T15:28:08.676Z,93810.22
2019-01-23T15:30:37.985Z,93802.30
2019-01-23T15:33:07.320Z,93794.30
2019-01-23T15:35:36.737Z,93795.94
2019-01-23T15:38:06.105Z,93792.62
2019-01-23T15:40:37.639Z,93783.11
2019-01-23T15:43:07.187Z,93782.73
2019-01-23T15:45:36.555Z,93790.43
2019-01-23T15:48:06.159Z,93776.41
2019-01-23T15:50:35.600Z,93777.09
2019-01-23T15:53:05.048Z,93777.09
2019-01-23T15:55:35.029Z,93769.08
2019-01-23T15:58:04.727Z,93769.08
2019-01-23T16:00:34.582Z,93774.66
2019-01-23T16:03:04.086Z,93784.55
2019-01-23T16:05:33.422Z,93778.11
2019-01-23T16:08:02.770Z,93784.00
2019-01-23T16:10:32.233Z,93782.42
2019-01-23T16:13:03.002Z,93769.73
2019-01-23T16:15:33.984Z,93778.62
2019-01-23T16:18:06.633Z,93780.95
2019-01-23T16:20:38.314Z,93779.58
2019-01-23T16:23:08.847Z,93776.47
2019-01-23T16:25:39.167Z,93785.02
2019-01-23T16:28:11.602Z,93785.46
2019-01-23T16:30:41.553Z,93784.78
2019-01-23T16:33:12.468Z,93775.13
2019-01-23T16:35:41.859Z,93779.89
2019-01-23T16:38:12.445Z,93777.11
2019-01-23T16:40:41.806Z,93771.98
2019-01-23T16:43:13.152Z,93762.98
2019-01-23T16:45:43.416Z,93769.17
2019-01-23T16:48:12.869Z,93771.05
2019-01-23T16:50:42.232Z,93756.27
2019-01-23T16:53:11.674Z,93757.80
2019-01-23T16:55:41.135Z,93759.77
2019-01-23T16:58:10.901Z,93757.55
2019-01-23T17:00:40.540Z,93763.52
2019-01-23T17:03:10.225Z,93760.11
2019-01-23T17:05:41.216Z,93748.46
2019-01-23T17:08:11.046Z,93746.25
2019-01-23T17:10:40.775Z,93748.91
2019-01-23T17:13:10.177Z,93746.89
2019-01-23T17:15:39.531Z,93747.78
2019-01-23T17:18:08.914Z,93742.79
2019-01-23T17:20:40.802Z,93723.98
2019-01-23T17:23:10.267Z,93716.42
2019-01-23T17:25:39.660Z,93731.77
2019-01-23T17:28:10.571Z,93733.80
2019-01-23T17:30:39.942Z,93730.89
2019-01-23T17:33:09.490Z,93729.70
2019-01-23T17:35:39.108Z,93724.47
2019-01-23T17:38:08.608Z,93706.89
2019-01-23T17:40:40.918Z,93720.91
2019-01-23T17:43:11.260Z,93717.05
2019-01-23T17:45:40.942Z,93716.95
2019-01-23T17:48:12.822Z,93722.25
2019-01-23T17:50:42.505Z,93728.37
2019-01-23T17:53:11.988Z,93704.91
2019-01-23T17:55:41.913Z,93700.05
2019-01-23T17:58:13.680Z,93687.47
2019-01-23T18:00:55.686Z,93695.13
2019-01-23T18:03:25.026Z,93688.59
2019-01-23T18:05:55.655Z,93689.15
2019-01-23T18:08:25.320Z,93681.34
2019-01-23T18:10:54.803Z,93681.34
2019-01-23T18:13:24.155Z,93690.89
2019-01-23T18:15:53.963Z,93691.23
2019-01-23T18:18:23.303Z,93685.90
2019-01-23T18:20:52.642Z,93687.12
2019-01-23T18:23:22.180Z,93685.72
2019-01-23T18:25:52.723Z,93682.06
2019-01-23T18:28:22.077Z,93677.09
2019-01-23T18:31:06.173Z,93664.98
2019-01-23T18:33:42.035Z,93660.39
2019-01-23T18:36:52.610Z,93651.53
2019-01-23T18:40:03.531Z,93651.63
2019-01-23T18:43:15.764Z,93660.97
2019-01-23T18:46:30.102Z,93660.39
2019-01-23T18:49:55.388Z,93660.30
2019-01-23T18:52:27.467Z,93673.64
2019-01-23T18:54:59.586Z,93669.63
2019-01-23T18:57:29.461Z,93669.53
2019-01-23T18:59:59.539Z,93676.30
2019-01-23T19:02:29.435Z,93676.06
2019-01-23T19:05:00.362Z,93507.73
2019-01-23T19:07:30.034Z,93649.19
2019-01-23T19:09:59.615Z,93645.83
2019-01-23T19:12:28.945Z,93637.39
2019-01-23T19:14:58.302Z,93623.16
2019-01-23T19:17:28.463Z,93634.08
2019-01-23T19:19:58.108Z,93633.84
2019-01-23T19:22:27.750Z,93622.17
2019-01-23T19:24:57.694Z,93613.15
2019-01-23T19:27:27.382Z,93623.38
2019-01-23T19:29:56.940Z,93623.72
2019-01-23T19:32:27.640Z,93624.62
2019-01-23T19:34:57.250Z,93611.92
2019-01-23T19:37:27.122Z,93610.70
2019-01-23T19:39:58.032Z,93615.38
2019-01-23T19:42:30.457Z,93601.70
2019-01-23T19:45:00.313Z,93607.81
2019-01-23T19:47:29.971Z,93606.93
2019-01-23T19:49:59.373Z,93591.69
2019-01-23T19:52:30.836Z,93613.81
2019-01-23T19:55:00.454Z,93608.27
2019-01-23T19:57:29.897Z,93617.38
2019-01-23T19:59:59.367Z,93602.38
2019-01-23T20:02:28.944Z,93597.02
2019-01-23T20:04:58.726Z,93597.02
2019-01-23T20:07:28.367Z,93589.02
2019-01-23T20:09:57.947Z,93591.00
2019-01-23T20:12:27.601Z,93590.68
2019-01-23T20:14:57.144Z,93593.58
2019-01-23T20:17:26.790Z,93577.22
2019-01-23T20:19:56.466Z,93567.30
2019-01-23T20:22:26.228Z,93554.52
2019-01-23T20:24:56.162Z,93554.28
2019-01-23T20:27:25.907Z,93529.23
2019-01-23T20:29:55.902Z,93529.23
2019-01-23T20:32:25.520Z,93529.91
2019-01-23T20:34:55.128Z,93529.91
2019-01-23T20:37:24.697Z,93534.34
2019-01-23T20:39:54.562Z,93534.34
2019-01-23T20:42:24.151Z,93528.13
2019-01-23T20:44:53.768Z,93522.33
2019-01-23T20:47:23.330Z,93511.88
2019-01-23T20:49:52.851Z,93495.50
2019-01-23T20:52:23.711Z,93507.16
2019-01-23T20:54:53.251Z,93520.24
2019-01-23T20:57:24.736Z,93522.69
2019-01-23T20:59:54.409Z,93503.98
2019-01-23T21:02:24.346Z,93494.08
2019-01-23T21:04:56.938Z,93484.37
2019-01-23T21:07:26.892Z,93484.48
2019-01-23T21:09:59.383Z,93486.33
2019-01-23T21:12:29.166Z,93482.79
2019-01-23T21:14:58.850Z,93470.77
2019-01-23T21:17:28.500Z,93470.29
2019-01-23T21:19:58.220Z,93472.28
2019-01-23T21:22:29.322Z,93484.00
2019-01-23T21:24:59.055Z,93481.33
2019-01-23T21:27:29.049Z,93480.53
2019-01-23T21:29:58.824Z,93496.11
2019-01-23T21:32:28.230Z,93494.38
2019-01-23T21:34:58.396Z,93466.88
2019-01-23T21:37:28.265Z,93472.70
2019-01-23T21:39:57.764Z,93484.92
2019-01-23T21:42:27.342Z,93479.45
2019-01-23T21:44:59.521Z,93478.48
2019-01-23T21:47:29.957Z,93473.85
2019-01-23T21:50:07.441Z,93460.98
2019-01-23T21:52:38.880Z,93474.34
2019-01-23T21:55:11.535Z,93498.59
2019-01-23T21:57:42.689Z,93480.35
2019-01-23T22:00:16.634Z,93468.65
2019-01-23T22:02:49.211Z,93468.75
2019-01-23T22:05:18.745Z,93471.13
2019-01-23T22:07:49.548Z,93445.20
2019-01-23T22:10:19.186Z,93455.66
2019-01-23T22:12:48.704Z,93463.59
2019-01-23T22:15:19.773Z,93454.80
2019-01-23T22:17:49.589Z,93454.80
2019-01-23T22:20:20.036Z,93460.80
2019-01-23T22:22:49.993Z,93464.08
2019-01-23T22:25:21.437Z,93462.97
2019-01-23T22:27:51.039Z,93459.91
2019-01-23T22:30:31.483Z,93461.23
2019-01-23T22:33:01.010Z,93464.08
2019-01-23T22:35:30.491Z,93458.66
2019-01-23T22:37:59.878Z,93458.72
2019-01-23T22:40:29.657Z,93458.30
2019-01-23T22:42:59.298Z,93472.66
2019-01-23T22:45:28.846Z,93470.21
2019-01-23T22:47:58.399Z,93459.90
2019-01-23T22:50:29.005Z,93303.83
2019-01-23T22:52:58.770Z,93443.09
2019-01-23T22:55:28.288Z,93437.87
2019-01-23T22:57:57.798Z,93443.57
2019-01-23T23:00:38.895Z,93432.42
2019-01-23T23:03:11.388Z,93437.04
2019-01-23T23:05:40.744Z,93441.23
2019-01-23T23:08:10.400Z,93446.87
2019-01-23T23:10:41.330Z,93445.34
2019-01-23T23:13:10.784Z,93437.31
2019-01-23T23:15:40.262Z,93437.65
2019-01-23T23:18:09.685Z,93433.02
2019-01-23T23:20:39.066Z,93437.84
2019-01-23T23:23:08.440Z,93430.83
2019-01-23T23:25:37.726Z,93407.74
2019-01-23T23:28:07.048Z,93404.28
2019-01-23T23:30:36.418Z,93264.16
2019-01-23T23:33:06.017Z,93403.89
2019-01-23T23:35:35.492Z,93405.72
2019-01-23T23:38:05.132Z,93407.67
2019-01-23T23:40:34.779Z,93410.61
2019-01-23T23:43:04.483Z,93400.05
2019-01-23T23:45:34.001Z,93377.11
2019-01-23T23:48:03.451Z,93370.43
2019-01-23T23:50:32.992Z,93362.81
2019-01-23T23:53:02.334Z,93351.72
2019-01-23T23:55:31.929Z,93345.98
2019-01-23T23:58:01.408Z,93342.03
